This is the latest recevied weather packets stored in our database for station/object IN3MWE-10. If no packets are shown the sender has not sent any weather packets the latest 10 day(s).
| Time | Temp. | Humidity | Pressure | Rain* | Wind** | Luminosity | Snow |
|---|---|---|---|---|---|---|---|
| 1777401323 | 16.11° C | 79% | 981 hPa | - | - | - | - |
| 1777400423 | 16.67° C | 74% | 980.6 hPa | - | - | - | - |
| 1777399523 | 16.67° C | 72% | 980.5 hPa | - | - | - | - |
| 1777398623 | 17.22° C | 63% | 980.3 hPa | - | - | - | - |
| 1777397723 | 17.22° C | 58% | 980.1 hPa | - | - | - | - |
| 1777396823 | 17.78° C | 56% | 979.9 hPa | - | - | - | - |
| 1777395922 | 18.33° C | 52% | 979.6 hPa | - | - | - | - |
| 1777395022 | 18.89° C | 51% | 979.5 hPa | - | - | - | - |
| 1777394122 | 19.44° C | 50% | 979.5 hPa | - | - | - | - |
| 1777393222 | 19.44° C | 50% | 979.3 hPa | - | - | - | - |
| 1777392322 | 19.44° C | 50% | 979.2 hPa | - | - | - | - |
| 1777391422 | 20° C | 49% | 979.1 hPa | - | - | - | - |
| 1777390522 | 19.44° C | 50% | 979.1 hPa | - | - | - | - |
| 1777389621 | 20° C | 49% | 979.1 hPa | - | - | - | - |
| 1777388721 | 20.56° C | 45% | 979.2 hPa | - | - | - | - |
| 1777387821 | 20° C | 41% | 979.3 hPa | - | - | - | - |
| 1777386921 | 20° C | 41% | 979.4 hPa | - | - | - | - |
| 1777386021 | 21.11° C | 42% | 979.4 hPa | - | - | - | - |
| 1777385121 | 20.56° C | 43% | 979.6 hPa | - | - | - | - |
| 1777384221 | 21.11° C | 43% | 979.5 hPa | - | - | - | - |
| 1777383321 | 20° C | 50% | 979.7 hPa | - | - | - | - |
| 1777382420 | 20° C | 52% | 979.9 hPa | - | - | - | - |
| 1777381520 | 20° C | 52% | 980 hPa | - | - | - | - |
| 1777380620 | 20° C | 47% | 979.8 hPa | - | - | - | - |
| 1777379720 | 20° C | 54% | 979.8 hPa | - | - | - | - |
* Rain since midnight (hover to see other rain measurements)
** Current wind speed in m/s (hover to see current wind gust speed)